createdAt,value
2024-01-25T00:00:33.984Z,43.56
2024-01-25T00:01:33.916Z,43.53
2024-01-25T00:02:33.839Z,43.58
2024-01-25T00:03:33.948Z,43.58
2024-01-25T00:04:34.008Z,43.59
2024-01-25T00:05:33.964Z,43.57
2024-01-25T00:06:34.005Z,43.56
2024-01-25T00:07:33.893Z,43.54
2024-01-25T00:08:33.854Z,43.55
2024-01-25T00:09:33.967Z,43.57
2024-01-25T00:10:33.883Z,43.55
2024-01-25T00:11:33.865Z,43.54
2024-01-25T00:12:33.939Z,43.52
2024-01-25T00:13:33.868Z,43.53
2024-01-25T00:14:33.891Z,43.54
2024-01-25T00:15:33.968Z,43.57
2024-01-25T00:16:33.895Z,43.56
2024-01-25T00:17:33.918Z,43.54
2024-01-25T00:18:34.067Z,43.55
2024-01-25T00:19:34.046Z,43.57
2024-01-25T00:20:33.995Z,43.57
2024-01-25T00:21:33.904Z,43.53
2024-01-25T00:22:33.875Z,43.54
2024-01-25T00:23:33.875Z,43.56
2024-01-25T00:24:33.987Z,43.55
2024-01-25T00:25:33.866Z,43.54
2024-01-25T00:26:33.914Z,43.52
2024-01-25T00:27:33.940Z,43.51
2024-01-25T00:28:34.006Z,43.52
2024-01-25T00:29:33.893Z,43.49
2024-01-25T00:30:33.917Z,43.49
2024-01-25T00:31:33.880Z,43.48
2024-01-25T00:32:34.014Z,43.48
2024-01-25T00:33:34.041Z,43.51
2024-01-25T00:34:34.169Z,43.49
2024-01-25T00:35:34.031Z,43.49
2024-01-25T00:36:33.990Z,43.48
2024-01-25T00:37:33.904Z,43.51
2024-01-25T00:38:33.913Z,43.49
2024-01-25T00:39:33.934Z,43.50
2024-01-25T00:40:33.964Z,43.47
2024-01-25T00:41:33.913Z,43.48
2024-01-25T00:42:33.993Z,43.47
2024-01-25T00:43:33.901Z,43.46
2024-01-25T00:44:33.980Z,43.46
2024-01-25T00:45:33.971Z,43.47
2024-01-25T00:46:33.898Z,43.45
2024-01-25T00:47:33.999Z,43.46
2024-01-25T00:48:34.119Z,43.47
2024-01-25T00:49:34.064Z,43.45
2024-01-25T00:50:34.147Z,43.47
2024-01-25T00:51:34.041Z,43.43
2024-01-25T00:52:34.032Z,43.44
2024-01-25T00:53:34.041Z,43.42
2024-01-25T00:54:34.129Z,43.43
2024-01-25T00:55:34.222Z,43.42
2024-01-25T00:56:34.166Z,43.45
2024-01-25T00:57:34.153Z,43.40
2024-01-25T00:58:34.133Z,43.45
2024-01-25T00:59:34.149Z,43.41
2024-01-25T01:00:34.324Z,43.42
2024-01-25T01:01:34.307Z,43.42
2024-01-25T01:02:34.251Z,43.42
2024-01-25T01:03:34.296Z,43.41
2024-01-25T01:04:46.741Z,43.39
2024-01-25T01:05:35.400Z,43.39
2024-01-25T01:06:34.380Z,43.39
2024-01-25T01:07:34.448Z,43.37
2024-01-25T01:08:34.220Z,43.39
2024-01-25T01:09:34.235Z,43.39
2024-01-25T01:10:34.311Z,43.37
2024-01-25T01:11:34.239Z,43.37
2024-01-25T01:12:34.327Z,43.34
2024-01-25T01:13:34.304Z,43.37
2024-01-25T01:14:34.239Z,43.37
2024-01-25T01:15:34.283Z,43.37
2024-01-25T01:16:34.234Z,43.38
2024-01-25T01:17:34.284Z,43.37
2024-01-25T01:18:34.403Z,43.36
2024-01-25T01:19:34.323Z,43.39
2024-01-25T01:20:34.288Z,43.37
2024-01-25T01:21:34.303Z,43.35
2024-01-25T01:22:34.293Z,43.36
2024-01-25T01:23:34.284Z,43.36
2024-01-25T01:24:34.332Z,43.33
2024-01-25T01:25:34.330Z,43.34
2024-01-25T01:26:34.337Z,43.37
2024-01-25T01:27:34.396Z,43.34
2024-01-25T01:28:34.363Z,43.34
2024-01-25T01:29:34.408Z,43.37
2024-01-25T01:30:34.466Z,43.36
2024-01-25T01:31:34.378Z,43.37
2024-01-25T01:32:34.477Z,43.37
2024-01-25T01:33:34.496Z,43.37
2024-01-25T01:34:34.803Z,43.35
2024-01-25T01:35:34.462Z,43.32
2024-01-25T01:36:34.477Z,43.31
2024-01-25T01:37:34.441Z,43.33
2024-01-25T01:38:34.463Z,43.27
2024-01-25T01:39:34.491Z,43.27
2024-01-25T01:40:34.564Z,43.23
2024-01-25T01:41:34.537Z,43.19
2024-01-25T01:42:34.620Z,43.18
2024-01-25T01:43:34.610Z,43.16
2024-01-25T01:44:34.697Z,43.13
2024-01-25T01:45:34.768Z,43.12
2024-01-25T01:46:34.811Z,43.10
2024-01-25T01:47:34.940Z,43.08
2024-01-25T01:48:35.193Z,43.04
2024-01-25T01:49:35.187Z,43.01
2024-01-25T01:50:35.247Z,42.95
2024-01-25T01:51:35.232Z,42.86
2024-01-25T01:52:35.156Z,42.80
2024-01-25T01:53:35.203Z,42.75
2024-01-25T01:54:35.304Z,42.66
2024-01-25T01:55:35.273Z,42.60
2024-01-25T01:56:35.317Z,42.55
2024-01-25T01:57:35.386Z,42.50
2024-01-25T01:58:35.372Z,42.44
2024-01-25T01:59:35.392Z,42.35
2024-01-25T02:00:35.457Z,42.30
2024-01-25T02:01:35.491Z,42.24
2024-01-25T02:02:35.444Z,42.19
2024-01-25T02:03:35.518Z,42.11
2024-01-25T02:04:35.534Z,42.05
2024-01-25T02:05:35.451Z,42.00
2024-01-25T02:06:35.646Z,41.96
2024-01-25T02:07:35.480Z,41.88
2024-01-25T02:08:35.484Z,41.84
2024-01-25T02:09:35.526Z,41.80
2024-01-25T02:10:35.511Z,41.73
2024-01-25T02:11:35.534Z,41.70
2024-01-25T02:12:35.612Z,41.67
2024-01-25T02:13:35.565Z,41.65
2024-01-25T02:14:35.584Z,41.59
2024-01-25T02:15:35.685Z,41.52
2024-01-25T02:16:35.674Z,41.47
2024-01-25T02:17:35.768Z,41.45
2024-01-25T02:18:35.856Z,41.41
2024-01-25T02:19:35.724Z,41.38
2024-01-25T02:20:35.695Z,41.35
2024-01-25T02:21:35.762Z,41.29
2024-01-25T02:22:35.798Z,41.25
2024-01-25T02:23:35.846Z,41.21
2024-01-25T02:24:35.954Z,41.18
2024-01-25T02:25:35.990Z,41.16
2024-01-25T02:26:36.039Z,41.11
2024-01-25T02:27:36.205Z,41.12
2024-01-25T02:28:36.288Z,41.07
2024-01-25T02:29:36.239Z,41.03
2024-01-25T02:30:36.374Z,41.00
2024-01-25T02:31:36.376Z,40.97
2024-01-25T02:32:36.508Z,40.93
2024-01-25T02:33:36.730Z,40.90
2024-01-25T02:34:36.689Z,40.89
2024-01-25T02:35:36.678Z,40.83
2024-01-25T02:36:36.774Z,40.83
2024-01-25T02:37:36.808Z,40.80
2024-01-25T02:38:36.882Z,40.79
2024-01-25T02:39:37.001Z,40.76
2024-01-25T02:40:37.002Z,40.73
2024-01-25T02:41:37.059Z,40.69
2024-01-25T02:42:37.147Z,40.68
2024-01-25T02:43:37.187Z,40.65
2024-01-25T02:44:37.262Z,40.60
2024-01-25T02:45:37.351Z,40.58
2024-01-25T02:46:37.501Z,40.55
2024-01-25T02:47:37.519Z,40.51
2024-01-25T02:48:37.571Z,40.49
2024-01-25T02:49:37.839Z,40.48
2024-01-25T02:50:37.562Z,40.43
2024-01-25T02:51:37.667Z,40.43
2024-01-25T02:52:37.666Z,40.39
2024-01-25T02:53:37.721Z,40.36
2024-01-25T02:54:37.870Z,40.33
2024-01-25T02:55:37.824Z,40.32
2024-01-25T02:56:37.866Z,40.28
2024-01-25T02:57:37.997Z,40.27
2024-01-25T02:58:37.995Z,40.27
2024-01-25T02:59:38.015Z,40.26
2024-01-25T03:00:38.183Z,40.24
2024-01-25T03:01:38.156Z,40.21
2024-01-25T03:02:38.138Z,40.18
2024-01-25T03:03:38.285Z,40.14
2024-01-25T03:04:38.350Z,40.15
2024-01-25T03:05:38.366Z,40.12
2024-01-25T03:06:38.494Z,40.12
2024-01-25T03:07:38.409Z,40.10
2024-01-25T03:08:38.382Z,40.06
2024-01-25T03:09:38.465Z,40.03
2024-01-25T03:10:38.446Z,40.04
2024-01-25T03:11:38.496Z,40.03
2024-01-25T03:12:38.639Z,40.01
2024-01-25T03:13:38.592Z,40.01
2024-01-25T03:14:38.617Z,39.96
2024-01-25T03:15:38.666Z,39.97
2024-01-25T03:16:38.679Z,39.97
2024-01-25T03:17:38.744Z,39.96
2024-01-25T03:18:38.840Z,39.95
2024-01-25T03:19:38.863Z,39.90
2024-01-25T03:20:38.802Z,39.95
2024-01-25T03:21:38.839Z,39.90
2024-01-25T03:22:38.869Z,39.88
2024-01-25T03:23:38.923Z,39.88
2024-01-25T03:24:39.006Z,39.88
2024-01-25T03:25:38.970Z,39.88
2024-01-25T03:26:38.995Z,39.83
2024-01-25T03:27:39.092Z,39.84
2024-01-25T03:28:39.067Z,39.83
2024-01-25T03:29:39.103Z,39.83
2024-01-25T03:30:39.154Z,39.81
2024-01-25T03:31:39.161Z,39.82
2024-01-25T03:32:39.237Z,39.81
2024-01-25T03:33:39.428Z,39.80
2024-01-25T03:34:39.398Z,39.75
2024-01-25T03:35:39.304Z,39.78
2024-01-25T03:36:39.339Z,39.76
2024-01-25T03:37:39.436Z,39.74
2024-01-25T03:38:39.384Z,39.74
2024-01-25T03:39:39.462Z,39.73
2024-01-25T03:40:39.439Z,39.74
2024-01-25T03:41:39.473Z,39.70
2024-01-25T03:42:39.532Z,39.71
2024-01-25T03:43:44.179Z,39.69
2024-01-25T03:44:40.541Z,39.69
2024-01-25T03:45:39.563Z,39.67
2024-01-25T03:46:39.544Z,39.68
2024-01-25T03:47:39.580Z,39.66
2024-01-25T03:48:39.567Z,39.64
2024-01-25T03:49:39.630Z,39.63
2024-01-25T03:50:39.639Z,39.64
2024-01-25T03:51:39.643Z,39.63
2024-01-25T03:52:39.557Z,39.63
2024-01-25T03:53:39.556Z,39.60
2024-01-25T03:54:39.581Z,39.62
2024-01-25T03:55:39.550Z,39.61
2024-01-25T03:56:39.595Z,39.61
2024-01-25T03:57:39.662Z,39.63
2024-01-25T03:58:39.642Z,39.60
2024-01-25T03:59:39.569Z,39.58
2024-01-25T04:00:39.708Z,39.57
2024-01-25T04:01:39.699Z,39.60
2024-01-25T04:02:39.555Z,39.59
2024-01-25T04:03:39.664Z,39.60
2024-01-25T04:04:39.608Z,39.58
2024-01-25T04:05:39.629Z,39.61
2024-01-25T04:06:39.604Z,39.59
2024-01-25T04:07:39.578Z,39.57
2024-01-25T04:08:39.580Z,39.58
2024-01-25T04:09:39.605Z,39.57
2024-01-25T04:10:39.602Z,39.55
2024-01-25T04:11:39.611Z,39.58
2024-01-25T04:12:39.662Z,39.55
2024-01-25T04:13:39.628Z,39.57
2024-01-25T04:14:39.675Z,39.58
2024-01-25T04:15:39.752Z,39.58
2024-01-25T04:16:39.688Z,39.59
2024-01-25T04:17:39.801Z,39.57
2024-01-25T04:18:39.917Z,39.57
2024-01-25T04:19:39.903Z,39.57
2024-01-25T04:20:39.844Z,39.58
2024-01-25T04:21:39.816Z,39.58
2024-01-25T04:22:39.828Z,39.58
2024-01-25T04:23:39.831Z,39.56
2024-01-25T04:24:39.876Z,39.61
2024-01-25T04:25:39.940Z,39.62
2024-01-25T04:26:39.919Z,39.57
2024-01-25T04:27:39.952Z,39.56
2024-01-25T04:28:39.945Z,39.57
2024-01-25T04:29:39.974Z,39.58
2024-01-25T04:30:40.030Z,39.58
2024-01-25T04:31:40.033Z,39.58
2024-01-25T04:32:40.065Z,39.58
2024-01-25T04:33:40.790Z,39.57
2024-01-25T04:34:40.175Z,39.59
2024-01-25T04:35:40.256Z,39.56
2024-01-25T04:36:40.192Z,39.58
2024-01-25T04:37:40.157Z,39.58
2024-01-25T04:38:40.160Z,39.60
2024-01-25T04:39:40.223Z,39.58
2024-01-25T04:40:40.217Z,39.59
2024-01-25T04:41:40.235Z,39.58
2024-01-25T04:42:40.279Z,39.55
2024-01-25T04:43:40.264Z,39.53
2024-01-25T04:44:40.277Z,39.55
2024-01-25T04:45:40.348Z,39.53
2024-01-25T04:46:40.349Z,39.55
2024-01-25T04:47:40.370Z,39.52
2024-01-25T04:48:47.826Z,39.58
2024-01-25T04:49:47.725Z,39.53
2024-01-25T04:50:47.721Z,39.51
2024-01-25T04:51:47.713Z,39.47
2024-01-25T04:52:47.668Z,39.46
2024-01-25T04:53:47.659Z,39.47
2024-01-25T04:54:47.730Z,39.49
2024-01-25T04:55:47.661Z,39.46
2024-01-25T04:56:47.667Z,39.50
2024-01-25T04:57:47.679Z,39.49
2024-01-25T04:58:47.667Z,39.49
2024-01-25T04:59:47.683Z,39.49
2024-01-25T05:00:47.746Z,39.49
2024-01-25T05:01:47.762Z,39.47
2024-01-25T05:02:48.256Z,39.47
2024-01-25T05:03:48.417Z,39.46
2024-01-25T05:04:47.741Z,39.48
2024-01-25T05:05:47.703Z,39.52
2024-01-25T05:06:47.759Z,39.47
2024-01-25T05:07:47.885Z,39.47
2024-01-25T05:08:47.775Z,39.53
2024-01-25T05:09:47.743Z,39.50
2024-01-25T05:10:47.697Z,39.54
2024-01-25T05:11:47.697Z,39.52
2024-01-25T05:12:47.739Z,39.49
2024-01-25T05:13:47.696Z,39.50
2024-01-25T05:14:47.705Z,39.54
2024-01-25T05:15:47.787Z,39.49
2024-01-25T05:16:47.745Z,39.51
2024-01-25T05:17:47.911Z,39.50
2024-01-25T05:18:47.911Z,39.49
2024-01-25T05:19:48.070Z,39.47
2024-01-25T05:20:47.821Z,39.46
2024-01-25T05:21:47.845Z,39.47
2024-01-25T05:22:47.833Z,39.50
2024-01-25T05:23:47.840Z,39.47
2024-01-25T05:24:53.826Z,39.48
2024-01-25T05:25:47.859Z,39.51
2024-01-25T05:26:47.875Z,39.50
2024-01-25T05:27:47.897Z,39.49
2024-01-25T05:28:47.900Z,39.50
2024-01-25T05:29:48.745Z,39.47
2024-01-25T05:30:47.909Z,39.48
2024-01-25T05:31:47.908Z,39.47
2024-01-25T05:32:47.983Z,39.47
2024-01-25T05:33:48.037Z,39.47
2024-01-25T05:34:47.973Z,39.48
2024-01-25T05:35:47.924Z,39.46
2024-01-25T05:36:47.933Z,39.42
2024-01-25T05:37:47.875Z,39.42
2024-01-25T05:38:47.883Z,39.42
2024-01-25T05:39:58.072Z,39.43
2024-01-25T05:40:47.880Z,39.45
2024-01-25T05:41:47.898Z,39.45
2024-01-25T05:42:47.952Z,39.46
2024-01-25T05:43:47.873Z,39.43
2024-01-25T05:44:47.871Z,39.40
2024-01-25T05:45:47.927Z,39.41
2024-01-25T05:46:47.887Z,39.39
2024-01-25T05:47:48.019Z,39.40
2024-01-25T05:48:48.087Z,39.42
2024-01-25T05:49:52.966Z,39.41
2024-01-25T05:50:47.884Z,39.41
2024-01-25T05:51:48.066Z,39.39
2024-01-25T05:52:47.909Z,39.37
2024-01-25T05:53:47.886Z,39.38
2024-01-25T05:54:47.936Z,39.35
2024-01-25T05:55:47.882Z,39.38
2024-01-25T05:56:47.911Z,39.35
2024-01-25T05:57:47.948Z,39.38
2024-01-25T05:58:47.931Z,39.38
2024-01-25T05:59:47.930Z,39.39
2024-01-25T06:00:48.067Z,39.36
2024-01-25T06:01:48.060Z,39.35
2024-01-25T06:02:47.901Z,39.35
2024-01-25T06:03:47.990Z,39.35
2024-01-25T06:04:48.139Z,39.35
2024-01-25T06:05:48.074Z,39.36
2024-01-25T06:06:48.153Z,39.34
2024-01-25T06:07:48.132Z,39.33
2024-01-25T06:08:54.950Z,39.29
2024-01-25T06:09:49.029Z,39.31
2024-01-25T06:10:47.933Z,39.34
2024-01-25T06:11:47.918Z,39.33
2024-01-25T06:12:48.055Z,39.36
2024-01-25T06:13:47.962Z,39.33
2024-01-25T06:14:47.960Z,39.33
2024-01-25T06:15:48.060Z,39.31
2024-01-25T06:16:47.943Z,39.34
2024-01-25T06:17:47.963Z,39.30
2024-01-25T06:18:48.035Z,39.30
2024-01-25T06:19:48.019Z,39.34
2024-01-25T06:20:47.951Z,39.34
2024-01-25T06:21:47.948Z,39.34
2024-01-25T06:22:47.924Z,42.20
2024-01-25T06:24:35.206Z,42.14
2024-01-25T06:25:35.247Z,41.54
2024-01-25T06:30:27.610Z,44.44
2024-01-25T06:31:27.809Z,42.38
2024-01-25T06:32:27.601Z,43.37
2024-01-25T06:33:27.726Z,43.02
2024-01-25T06:34:27.728Z,39.57
2024-01-25T06:36:04.520Z,40.07
2024-01-25T06:37:04.573Z,39.45
2024-01-25T06:38:04.471Z,39.33
2024-01-25T06:39:04.490Z,39.23
2024-01-25T06:40:04.522Z,39.25
2024-01-25T06:41:04.508Z,39.68
2024-01-25T06:42:04.477Z,39.52
2024-01-25T06:43:04.549Z,39.51
2024-01-25T06:44:04.920Z,39.59
2024-01-25T06:45:04.575Z,39.66
2024-01-25T06:46:04.652Z,39.76
2024-01-25T06:47:04.629Z,39.89
2024-01-25T06:48:04.661Z,38.96
2024-01-25T06:49:04.842Z,38.28
2024-01-25T06:50:04.815Z,38.09
2024-01-25T06:51:04.821Z,39.94
2024-01-25T06:52:05.009Z,40.40
2024-01-25T06:53:04.944Z,40.50
2024-01-25T06:54:04.999Z,41.38
2024-01-25T06:55:05.125Z,41.39
2024-01-25T06:56:05.118Z,41.37
2024-01-25T06:57:05.190Z,41.48
2024-01-25T06:58:05.249Z,41.38
2024-01-25T06:59:05.289Z,41.57
2024-01-25T07:00:05.333Z,41.77
2024-01-25T07:01:05.371Z,42.12
2024-01-25T07:02:05.462Z,42.69
2024-01-25T07:03:05.460Z,42.88
2024-01-25T07:04:05.626Z,43.41
2024-01-25T07:05:05.433Z,43.72
2024-01-25T07:06:05.464Z,43.83
2024-01-25T07:07:05.601Z,43.85
2024-01-25T07:08:05.480Z,44.09
2024-01-25T07:09:05.489Z,44.27
2024-01-25T07:10:05.588Z,45.33
2024-01-25T07:11:05.496Z,45.90
2024-01-25T07:12:05.502Z,45.82
2024-01-25T07:13:05.634Z,45.82
2024-01-25T07:14:05.544Z,46.08
2024-01-25T07:15:05.600Z,46.11
2024-01-25T07:16:05.722Z,46.26
2024-01-25T07:17:05.734Z,46.41
2024-01-25T07:18:05.851Z,46.53
2024-01-25T07:19:06.039Z,46.69
2024-01-25T07:20:06.046Z,46.85
2024-01-25T07:21:05.988Z,46.91
2024-01-25T07:22:06.108Z,47.07
2024-01-25T07:23:06.122Z,47.20
2024-01-25T07:24:06.188Z,47.42
2024-01-25T07:25:06.329Z,47.60
2024-01-25T07:26:06.298Z,47.77
2024-01-25T07:27:06.364Z,47.92
2024-01-25T07:28:06.429Z,48.00
2024-01-25T07:29:06.455Z,48.09
2024-01-25T07:30:06.525Z,48.22
2024-01-25T07:31:06.572Z,48.23
2024-01-25T07:32:06.603Z,48.45
2024-01-25T07:33:06.707Z,48.55
2024-01-25T07:34:06.806Z,48.69
2024-01-25T07:35:06.834Z,48.82
2024-01-25T07:36:06.788Z,48.95
2024-01-25T07:37:06.875Z,48.97
2024-01-25T07:38:06.852Z,49.20
2024-01-25T07:39:06.908Z,49.29
2024-01-25T07:40:07.035Z,49.40
2024-01-25T07:41:06.987Z,49.41
2024-01-25T07:42:07.032Z,49.55
2024-01-25T07:43:07.110Z,49.59
2024-01-25T07:44:07.098Z,49.70
2024-01-25T07:45:07.162Z,49.79
2024-01-25T07:46:07.173Z,49.83
2024-01-25T07:47:07.187Z,49.99
2024-01-25T07:48:14.308Z,50.11
2024-01-25T07:49:08.320Z,50.16
2024-01-25T07:50:07.379Z,50.24
2024-01-25T07:51:07.343Z,50.29
2024-01-25T07:52:07.277Z,50.44
2024-01-25T07:53:07.240Z,50.62
2024-01-25T07:54:07.228Z,50.66
2024-01-25T07:55:07.285Z,50.56
2024-01-25T07:56:07.219Z,50.52
2024-01-25T07:57:07.249Z,50.28
2024-01-25T07:58:07.278Z,50.30
2024-01-25T07:59:07.265Z,50.31
2024-01-25T08:00:07.244Z,50.39
2024-01-25T08:01:07.466Z,50.54
2024-01-25T08:02:07.419Z,50.53
2024-01-25T08:03:07.248Z,50.57
2024-01-25T08:04:07.351Z,50.54
2024-01-25T08:05:07.411Z,50.65
2024-01-25T08:06:07.353Z,50.73
2024-01-25T08:07:07.437Z,50.74
2024-01-25T08:08:07.364Z,50.80
2024-01-25T08:09:07.260Z,50.79
2024-01-25T08:10:07.328Z,50.84
2024-01-25T08:11:07.296Z,50.94
2024-01-25T08:12:07.346Z,51.05
2024-01-25T08:13:08.152Z,51.08
2024-01-25T08:14:07.445Z,51.08
2024-01-25T08:15:07.501Z,51.14
2024-01-25T08:16:07.403Z,51.20
2024-01-25T08:17:07.443Z,51.24
2024-01-25T08:18:07.629Z,51.34
2024-01-25T08:19:07.583Z,51.36
2024-01-25T08:20:07.564Z,51.35
2024-01-25T08:21:07.511Z,51.37
2024-01-25T08:22:07.531Z,51.52
2024-01-25T08:23:07.481Z,51.58
2024-01-25T08:24:07.501Z,51.58
2024-01-25T08:25:07.585Z,51.63
2024-01-25T08:26:07.545Z,51.79
2024-01-25T08:27:07.562Z,51.87
2024-01-25T08:28:07.633Z,51.90
2024-01-25T08:29:07.586Z,51.92
2024-01-25T08:30:07.659Z,51.95
2024-01-25T08:31:07.682Z,52.06
2024-01-25T08:32:07.618Z,52.09
2024-01-25T08:33:07.801Z,52.10
2024-01-25T08:34:07.990Z,52.19
2024-01-25T08:35:07.836Z,52.22
2024-01-25T08:36:07.692Z,52.27
2024-01-25T08:37:07.783Z,52.31
2024-01-25T08:38:07.695Z,52.34
2024-01-25T08:39:07.729Z,52.48
2024-01-25T08:40:07.911Z,52.57
2024-01-25T08:41:07.751Z,52.58
2024-01-25T08:42:07.744Z,52.67
2024-01-25T08:43:07.829Z,52.77
2024-01-25T08:44:07.766Z,52.84
2024-01-25T08:45:07.787Z,52.81
2024-01-25T08:46:07.826Z,52.88
2024-01-25T08:47:07.863Z,53.02
2024-01-25T08:48:07.944Z,52.96
2024-01-25T08:49:07.974Z,52.97
2024-01-25T08:50:07.997Z,52.90
2024-01-25T08:51:07.880Z,52.75
2024-01-25T08:52:07.951Z,52.76
2024-01-25T08:53:07.920Z,52.76
2024-01-25T08:54:07.933Z,52.75
2024-01-25T08:55:08.049Z,52.71
2024-01-25T08:56:08.046Z,52.77
2024-01-25T08:57:08.139Z,52.77
2024-01-25T08:58:08.126Z,52.84
2024-01-25T08:59:08.147Z,52.81
2024-01-25T09:00:08.211Z,52.82
2024-01-25T09:01:08.353Z,52.83
2024-01-25T09:02:08.435Z,52.83
2024-01-25T09:03:08.406Z,52.87
2024-01-25T09:04:08.493Z,52.85
2024-01-25T09:05:08.916Z,52.88
2024-01-25T09:06:08.723Z,52.88
2024-01-25T09:07:08.724Z,52.88
2024-01-25T09:08:08.739Z,52.82
2024-01-25T09:09:08.741Z,52.89
2024-01-25T09:10:08.938Z,52.88
2024-01-25T09:11:08.874Z,52.88
2024-01-25T09:12:08.982Z,52.92
2024-01-25T09:13:09.033Z,52.91
2024-01-25T09:14:09.067Z,52.92
2024-01-25T09:15:09.150Z,52.96
2024-01-25T09:16:09.254Z,52.89
2024-01-25T09:17:09.343Z,52.90
2024-01-25T09:18:09.394Z,52.94
2024-01-25T09:19:10.112Z,52.95
2024-01-25T09:20:09.523Z,52.95
2024-01-25T09:21:09.452Z,52.87
2024-01-25T09:22:09.526Z,52.86
2024-01-25T09:23:09.463Z,52.86
2024-01-25T09:24:09.491Z,52.86
2024-01-25T09:25:10.147Z,52.88
2024-01-25T09:26:09.489Z,52.82
2024-01-25T09:27:09.497Z,52.87
2024-01-25T09:28:09.608Z,52.86
2024-01-25T09:29:09.485Z,52.81
2024-01-25T09:30:09.500Z,52.84
2024-01-25T09:31:09.577Z,52.83
2024-01-25T09:32:09.504Z,52.77
2024-01-25T09:33:09.627Z,52.79
2024-01-25T09:34:09.728Z,52.77
2024-01-25T09:35:09.657Z,52.78
2024-01-25T09:36:09.704Z,52.76
2024-01-25T09:37:09.691Z,52.75
2024-01-25T09:38:09.605Z,52.76
2024-01-25T09:39:09.603Z,52.70
2024-01-25T09:40:09.711Z,52.70
2024-01-25T09:41:09.655Z,52.70
2024-01-25T09:42:09.704Z,52.64
2024-01-25T09:43:09.745Z,52.64
2024-01-25T09:44:09.703Z,52.61
2024-01-25T09:45:09.761Z,52.61
2024-01-25T09:46:09.811Z,52.60
2024-01-25T09:47:09.814Z,52.61
2024-01-25T09:48:12.654Z,52.57
2024-01-25T09:49:09.981Z,52.57
2024-01-25T09:50:09.972Z,52.53
2024-01-25T09:51:09.832Z,52.51
2024-01-25T09:52:09.902Z,52.53
2024-01-25T09:53:09.838Z,52.51
2024-01-25T09:54:09.809Z,52.54
2024-01-25T09:55:09.873Z,52.48
2024-01-25T09:56:09.816Z,52.50
2024-01-25T09:57:09.815Z,52.38
2024-01-25T09:58:09.916Z,52.43
2024-01-25T09:59:09.846Z,52.48
2024-01-25T10:00:09.840Z,52.53
2024-01-25T10:01:09.873Z,52.79
2024-01-25T10:02:09.922Z,52.73
2024-01-25T10:03:09.829Z,52.66
2024-01-25T10:04:10.027Z,52.74
2024-01-25T10:05:10.023Z,52.79
2024-01-25T10:06:09.990Z,52.88
2024-01-25T10:07:09.923Z,52.86
2024-01-25T10:08:09.984Z,52.87
2024-01-25T10:09:09.838Z,52.87
2024-01-25T10:10:09.961Z,52.94
2024-01-25T10:11:09.883Z,53.00
2024-01-25T10:12:17.195Z,53.02
2024-01-25T10:13:10.892Z,53.11
2024-01-25T10:14:09.854Z,53.14
2024-01-25T10:15:09.869Z,53.21
2024-01-25T10:16:09.912Z,53.16
2024-01-25T10:17:09.946Z,53.34
2024-01-25T10:19:10.206Z,53.42
2024-01-25T10:20:09.998Z,53.46
2024-01-25T10:21:09.955Z,53.54
2024-01-25T10:22:10.091Z,53.66
2024-01-25T10:23:09.966Z,53.66
2024-01-25T10:24:10.004Z,53.71
2024-01-25T10:25:10.008Z,53.71
2024-01-25T10:26:09.865Z,53.77
2024-01-25T10:27:09.916Z,53.84
2024-01-25T10:28:09.972Z,53.88
2024-01-25T10:29:09.939Z,53.95
2024-01-25T10:30:09.880Z,53.92
2024-01-25T10:31:10.053Z,53.97
2024-01-25T10:32:09.893Z,54.08
2024-01-25T10:33:10.023Z,54.10
2024-01-25T10:34:09.909Z,54.15
2024-01-25T10:35:10.067Z,54.18
2024-01-25T10:36:09.889Z,54.24
2024-01-25T10:37:10.032Z,54.25
2024-01-25T10:38:09.864Z,54.32
2024-01-25T10:39:09.878Z,54.30
2024-01-25T10:40:09.903Z,54.39
2024-01-25T10:41:09.894Z,54.48
2024-01-25T10:42:09.895Z,54.55
2024-01-25T10:43:09.896Z,54.58
2024-01-25T10:44:09.926Z,54.63
2024-01-25T10:45:09.965Z,54.70
2024-01-25T10:46:10.155Z,54.64
2024-01-25T10:47:10.066Z,54.23
2024-01-25T10:48:10.167Z,54.40
2024-01-25T10:49:10.270Z,52.83
2024-01-25T10:50:10.352Z,50.66
2024-01-25T10:51:10.241Z,50.97
2024-01-25T10:52:10.296Z,48.55
2024-01-25T10:53:10.279Z,51.16
2024-01-25T10:54:10.266Z,51.86
2024-01-25T10:55:10.335Z,52.22
2024-01-25T10:56:10.315Z,52.24
2024-01-25T10:57:10.338Z,52.42
2024-01-25T10:58:10.449Z,52.46
2024-01-25T10:59:10.402Z,52.40
2024-01-25T11:00:10.437Z,52.32
2024-01-25T11:01:11.720Z,52.41
2024-01-25T11:02:10.622Z,52.23
2024-01-25T11:03:10.531Z,52.17
2024-01-25T11:04:10.594Z,52.01
2024-01-25T11:05:10.637Z,51.90
2024-01-25T11:06:10.703Z,51.71
2024-01-25T11:07:10.635Z,51.58
2024-01-25T11:08:10.513Z,51.40
2024-01-25T11:09:17.848Z,51.25
2024-01-25T11:10:17.932Z,51.08
2024-01-25T11:11:17.852Z,51.05
2024-01-25T11:12:17.872Z,51.04
2024-01-25T11:13:17.860Z,51.09
2024-01-25T11:14:17.821Z,51.15
2024-01-25T11:15:17.824Z,51.21
2024-01-25T11:16:18.130Z,51.29
2024-01-25T11:17:17.942Z,51.33
2024-01-25T11:18:18.089Z,51.43
2024-01-25T11:19:18.148Z,51.51
2024-01-25T11:20:18.107Z,51.58
2024-01-25T11:21:18.052Z,51.61
2024-01-25T11:22:23.159Z,51.79
2024-01-25T11:23:18.928Z,51.87
2024-01-25T11:24:18.091Z,51.98
2024-01-25T11:25:18.250Z,52.07
2024-01-25T11:26:18.099Z,52.13
2024-01-25T11:27:18.126Z,52.20
2024-01-25T11:28:18.236Z,52.29
2024-01-25T11:29:18.148Z,52.34
2024-01-25T11:30:18.120Z,52.43
2024-01-25T11:31:18.222Z,52.62
2024-01-25T11:32:18.174Z,52.68
2024-01-25T11:33:18.278Z,52.77
2024-01-25T11:34:18.326Z,52.89
2024-01-25T11:35:18.413Z,53.00
2024-01-25T11:36:18.139Z,53.07
2024-01-25T11:37:18.188Z,53.14
2024-01-25T11:38:18.161Z,53.24
2024-01-25T11:39:18.154Z,53.33
2024-01-25T11:40:18.174Z,53.42
2024-01-25T11:41:18.161Z,53.54
2024-01-25T11:42:18.127Z,53.63
2024-01-25T11:43:18.223Z,53.60
2024-01-25T11:44:18.129Z,53.72
2024-01-25T11:45:18.174Z,53.82
2024-01-25T11:46:18.257Z,53.51
2024-01-25T11:47:18.191Z,53.52
2024-01-25T11:48:18.293Z,53.43
2024-01-25T11:49:18.348Z,53.42
2024-01-25T11:50:18.392Z,53.40
2024-01-25T11:51:18.328Z,53.11
2024-01-25T11:52:18.375Z,53.15
2024-01-25T11:53:18.391Z,52.50
2024-01-25T11:54:18.414Z,50.27
2024-01-25T11:55:18.507Z,47.21
2024-01-25T11:56:18.534Z,43.35
2024-01-25T11:57:18.656Z,41.34
2024-01-25T11:58:18.702Z,40.79
2024-01-25T11:59:18.697Z,42.20
2024-01-25T12:00:18.702Z,42.04
2024-01-25T12:01:18.768Z,40.64
2024-01-25T12:02:18.789Z,41.65
2024-01-25T12:03:18.748Z,44.15
2024-01-25T12:04:18.930Z,46.50
2024-01-25T12:05:18.972Z,46.44
2024-01-25T12:06:18.929Z,46.44
2024-01-25T12:07:18.986Z,46.74
2024-01-25T12:08:18.863Z,46.57
2024-01-25T12:09:18.861Z,46.46
2024-01-25T12:10:19.026Z,46.74
2024-01-25T12:11:18.925Z,46.67
2024-01-25T12:12:18.963Z,46.69
2024-01-25T12:13:19.069Z,46.66
2024-01-25T12:14:19.090Z,46.75
2024-01-25T12:15:19.181Z,46.80
2024-01-25T12:16:19.240Z,46.77
2024-01-25T12:17:19.264Z,46.76
2024-01-25T12:18:19.401Z,46.72
2024-01-25T12:19:19.575Z,46.75
2024-01-25T12:20:19.578Z,46.69
2024-01-25T12:21:19.486Z,46.64
2024-01-25T12:22:19.598Z,46.56
2024-01-25T12:23:19.620Z,46.52
2024-01-25T12:24:19.662Z,46.45
2024-01-25T12:25:19.796Z,46.41
2024-01-25T12:26:19.827Z,46.29
2024-01-25T12:27:19.813Z,46.31
2024-01-25T12:28:19.888Z,46.23
2024-01-25T12:29:19.903Z,46.13
2024-01-25T12:30:19.960Z,46.12
2024-01-25T12:31:20.013Z,45.90
2024-01-25T12:32:20.021Z,45.74
2024-01-25T12:33:21.296Z,45.78
2024-01-25T12:34:20.208Z,45.62
2024-01-25T12:35:20.290Z,45.64
2024-01-25T12:36:20.263Z,45.56
2024-01-25T12:37:20.276Z,45.40
2024-01-25T12:38:20.265Z,45.07
2024-01-25T12:39:20.960Z,44.87
2024-01-25T12:40:20.436Z,44.75
2024-01-25T12:41:20.457Z,44.18
2024-01-25T12:42:20.395Z,44.51
2024-01-25T12:43:20.466Z,44.35
2024-01-25T12:44:20.418Z,44.50
2024-01-25T12:45:20.463Z,44.54
2024-01-25T12:46:26.547Z,44.44
2024-01-25T12:47:21.529Z,44.28
2024-01-25T12:48:20.507Z,44.27
2024-01-25T12:49:20.456Z,44.18
2024-01-25T12:50:20.453Z,44.17
2024-01-25T12:51:20.516Z,44.22
2024-01-25T12:52:20.487Z,44.22
2024-01-25T12:53:20.472Z,44.11
2024-01-25T12:54:20.532Z,44.03
2024-01-25T12:55:20.459Z,44.07
2024-01-25T12:56:20.493Z,44.01
2024-01-25T12:57:20.529Z,43.99
2024-01-25T12:58:20.469Z,43.92
2024-01-25T12:59:20.474Z,43.99